Time;durP1;ratioP1;P1;durP2;ratioP2;P2;SDS_P1;SDS_P2;PMS_P1;PMS_P2;Temp;Humidity;BMP_temperature;BMP_pressure;BME280_temperature;BME280_humidity;BME280_pressure;Samples;Min_cycle;Max_cycle;Signal;HPM_P1;HPM_P2
2023/05/25 00:01:43;;;;;;;41.15;21.33;;;;;;;15.00;73.17;100606.43;1740713;82;25452;-71
2023/05/25 00:04:15;;;;;;;38.55;21.27;;;;;;;14.98;73.11;100606.52;1740679;82;25451;-71
2023/05/25 00:06:40;;;;;;;36.25;21.75;;;;;;;14.93;73.48;100597.42;1740501;81;28235;-71
2023/05/25 00:09:07;;;;;;;36.83;21.27;;;;;;;14.91;73.44;100599.69;1740555;82;25721;-71
2023/05/25 00:11:33;;;;;;;36.03;20.57;;;;;;;14.88;73.53;100600.34;1741725;81;25548;-71
2023/05/25 00:13:59;;;;;;;39.98;23.15;;;;;;;14.86;73.61;100596.33;1743516;82;25583;-71
2023/05/25 00:16:26;;;;;;;33.38;20.92;;;;;;;14.84;73.68;100601.32;1743575;82;25594;-71
2023/05/25 00:18:56;;;;;;;46.77;23.20;;;;;;;14.82;73.60;100603.58;1738297;81;27543;-71
2023/05/25 00:21:20;;;;;;;43.42;22.22;;;;;;;14.79;74.03;100604.23;1737734;81;25383;-71
2023/05/25 00:23:46;;;;;;;39.88;22.37;;;;;;;14.74;74.18;100604.67;1737276;82;25474;-71
2023/05/25 00:26:12;;;;;;;47.05;22.77;;;;;;;14.70;74.03;100608.38;1737196;81;25553;-71
2023/05/25 00:28:38;;;;;;;42.75;22.60;;;;;;;14.65;74.60;100609.35;1737251;81;25371;-71
2023/05/25 00:31:06;;;;;;;37.40;21.82;;;;;;;14.60;74.69;100614.98;1737164;82;27499;-71
2023/05/25 00:33:32;;;;;;;40.97;22.97;;;;;;;14.56;74.97;100618.90;1737462;82;25703;-71
2023/05/25 00:35:59;;;;;;;41.25;22.77;;;;;;;14.54;75.04;100627.14;1737305;82;25444;-71
2023/05/25 00:38:25;;;;;;;34.50;22.80;;;;;;;14.49;75.26;100618.62;1737223;82;25614;-71
2023/05/25 00:40:56;;;;;;;51.23;23.83;;;;;;;14.47;75.00;100619.52;1737319;82;25600;-72
2023/05/25 00:43:22;;;;;;;46.70;24.92;;;;;;;14.45;75.48;100623.67;1737205;82;27480;-71
2023/05/25 00:45:51;;;;;;;45.78;23.30;;;;;;;14.42;75.67;100619.70;1737115;82;25718;-71
2023/05/25 00:48:19;;;;;;;40.98;24.07;;;;;;;14.40;75.58;100620.56;1737322;81;25562;-71
2023/05/25 00:50:45;;;;;;;39.88;24.90;;;;;;;14.37;76.16;100613.86;1737129;82;25462;-70
2023/05/25 00:53:13;;;;;;;39.53;23.70;;;;;;;14.32;75.88;100618.12;1737246;82;25369;-71
2023/05/25 00:56:02;;;;;;;36.83;23.90;;;;;;;14.30;75.74;100616.30;1737470;81;28123;-71
2023/05/25 00:58:32;;;;;;;42.08;24.40;;;;;;;14.26;76.07;100613.98;1733878;82;25606;-70
2023/05/25 01:01:01;;;;;;;40.50;23.92;;;;;;;14.21;76.38;100620.95;1737237;82;25622;-70
2023/05/25 01:03:33;;;;;;;35.68;23.40;;;;;;;14.16;76.19;100618.41;1737292;82;25575;-71
2023/05/25 01:06:02;;;;;;;35.68;23.38;;;;;;;14.13;76.17;100617.70;1737194;82;25608;-70
2023/05/25 01:08:32;;;;;;;36.38;23.20;;;;;;;14.10;76.43;100623.23;1737396;82;27463;-70
2023/05/25 01:11:03;;;;;;;39.53;24.90;;;;;;;14.07;76.93;100625.24;1737496;82;25563;-70
2023/05/25 01:13:33;;;;;;;34.13;23.62;;;;;;;14.03;76.84;100629.75;1737480;81;25600;-70
2023/05/25 01:16:04;;;;;;;41.63;24.50;;;;;;;14.01;76.97;100624.63;1737117;82;25398;-70
2023/05/25 01:18:32;;;;;;;36.35;23.00;;;;;;;13.98;77.32;100627.20;1737201;82;25378;-70
2023/05/25 01:21:12;;;;;;;35.92;25.05;;;;;;;13.95;77.30;100627.84;1737328;81;27518;-70
2023/05/25 01:23:41;;;;;;;35.25;24.55;;;;;;;13.94;77.66;100629.73;1736111;82;25604;-70
2023/05/25 01:26:12;;;;;;;38.53;25.52;;;;;;;13.95;77.71;100633.28;1737037;82;25424;-70
2023/05/25 01:28:45;;;;;;;41.42;25.52;;;;;;;13.96;77.86;100634.86;1737281;82;25488;-71
2023/05/25 01:31:15;;;;;;;40.85;26.42;;;;;;;13.96;78.06;100633.50;1737301;82;25394;-71
2023/05/25 01:33:44;;;;;;;46.02;26.20;;;;;;;13.95;78.40;100638.14;1737340;82;27475;-71
2023/05/25 01:36:10;;;;;;;39.18;26.33;;;;;;;13.93;78.42;100637.67;1737507;82;25558;-71
2023/05/25 01:38:38;;;;;;;46.25;28.57;;;;;;;13.96;78.73;100634.86;1738594;81;25583;-71
2023/05/25 01:41:04;;;;;;;46.02;27.93;;;;;;;13.95;78.96;100629.98;1737118;82;25651;-71
2023/05/25 01:43:30;;;;;;;46.80;29.10;;;;;;;13.95;78.92;100633.28;1737731;81;25380;-70
2023/05/25 01:46:20;;;;;;;46.88;28.92;;;;;;;13.96;79.09;100634.86;1737016;82;28155;-71
2023/05/25 01:49:13;;;;;;;48.78;29.87;;;;;;;13.97;79.18;100631.03;1735902;82;25699;-70
2023/05/25 01:52:05;;;;;;;52.30;30.95;;;;;;;13.94;79.47;100632.45;1738768;81;25406;-70
2023/05/25 01:54:44;;;;;;;52.10;29.85;;;;;;;13.94;79.63;100628.95;1736641;82;25555;-70
2023/05/25 01:57:15;;;;;;;48.25;29.82;;;;;;;13.89;79.74;100635.34;1722131;83;25723;-71
2023/05/25 01:59:46;;;;;;;50.15;30.08;;;;;;;13.89;80.10;100632.63;1722268;83;27540;-71
2023/05/25 02:02:18;;;;;;;56.25;33.08;;;;;;;13.91;80.25;100625.51;1721805;83;25668;-72
2023/05/25 02:04:47;;;;;;;52.70;29.75;;;;;;;13.93;80.50;100627.37;1722419;83;25185;-72
2023/05/25 02:07:13;;;;;;;54.20;31.02;;;;;;;13.93;80.16;100632.80;1722481;83;25535;-72
2023/05/25 02:09:39;;;;;;;56.88;31.10;;;;;;;13.96;80.51;100630.78;1721757;83;25656;-72
2023/05/25 02:12:06;;;;;;;53.23;30.12;;;;;;;13.96;80.24;100638.39;1722211;82;27994;-72
2023/05/25 02:14:32;;;;;;;55.25;29.67;;;;;;;13.97;80.23;100631.81;1722220;83;25561;-72
2023/05/25 02:17:00;;;;;;;50.05;29.32;;;;;;;13.99;80.44;100632.86;1722332;81;25542;-72
2023/05/25 02:19:28;;;;;;;49.90;29.75;;;;;;;14.01;80.80;100625.98;1721952;83;25456;-72
2023/05/25 02:21:56;;;;;;;49.63;29.23;;;;;;;14.04;80.61;100632.69;1722330;83;25562;-72
2023/05/25 02:24:25;;;;;;;51.63;29.70;;;;;;;14.06;80.72;100641.88;1722285;83;27459;-72
2023/05/25 02:26:51;;;;;;;51.75;29.87;;;;;;;14.07;80.56;100635.33;1722240;83;25428;-72
2023/05/25 02:29:18;;;;;;;51.30;28.67;;;;;;;14.10;81.18;100634.13;1698144;83;25516;-72
2023/05/25 02:31:44;;;;;;;54.05;30.65;;;;;;;14.13;80.92;100634.02;1722248;83;25792;-72
2023/05/25 02:34:12;;;;;;;58.78;31.30;;;;;;;14.16;80.92;100635.52;1726955;82;25447;-72
2023/05/25 02:36:42;;;;;;;54.25;31.73;;;;;;;14.19;80.80;100637.60;1737343;82;27463;-72
2023/05/25 02:39:10;;;;;;;66.37;31.70;;;;;;;14.23;80.89;100636.39;1737165;81;25607;-72
2023/05/25 02:41:38;;;;;;;55.43;30.37;;;;;;;14.25;81.00;100635.52;1732158;81;25540;-72
2023/05/25 02:44:04;;;;;;;54.80;30.45;;;;;;;14.25;80.86;100636.88;1737545;82;25703;-72
2023/05/25 02:46:32;;;;;;;54.27;31.77;;;;;;;14.29;80.82;100642.47;1737222;82;25518;-72
2023/05/25 02:49:01;;;;;;;55.98;30.23;;;;;;;14.29;80.69;100640.54;1737167;82;27524;-72
2023/05/25 02:51:27;;;;;;;57.53;31.42;;;;;;;14.33;81.10;100646.91;1732683;82;25456;-72
2023/05/25 02:53:53;;;;;;;65.05;32.25;;;;;;;14.35;80.88;100649.31;1737151;82;25613;-72
2023/05/25 02:56:21;;;;;;;57.33;31.60;;;;;;;14.36;80.81;100647.63;1737081;82;25443;-71
2023/05/25 02:58:50;;;;;;;60.55;31.68;;;;;;;14.37;80.71;100649.81;1737514;81;25623;-71
2023/05/25 03:01:20;;;;;;;62.38;32.42;;;;;;;14.40;80.83;100647.77;1737404;82;27407;-71
2023/05/25 03:03:46;;;;;;;55.83;30.68;;;;;;;14.43;80.89;100649.84;1737153;81;25737;-72
2023/05/25 03:06:14;;;;;;;57.27;31.77;;;;;;;14.43;80.71;100647.70;1737142;82;25575;-72
2023/05/25 03:08:40;;;;;;;62.90;32.58;;;;;;;14.46;80.92;100645.69;1737041;82;25493;-71
2023/05/25 03:11:07;;;;;;;54.83;31.60;;;;;;;14.46;80.83;100646.48;1737231;82;25657;-71
2023/05/25 03:13:35;;;;;;;56.48;31.77;;;;;;;14.47;80.89;100649.45;1737038;81;27445;-72
2023/05/25 03:16:01;;;;;;;55.63;31.17;;;;;;;14.48;80.65;100651.60;1737378;80;25889;-70
2023/05/25 03:18:27;;;;;;;58.10;31.70;;;;;;;14.51;80.92;100653.67;1737158;82;25447;-72
2023/05/25 03:20:53;;;;;;;55.78;31.23;;;;;;;14.51;80.67;100652.31;1737631;82;25999;-71
2023/05/25 03:23:20;;;;;;;49.70;31.35;;;;;;;14.53;80.69;100653.57;1737186;82;25408;-72
2023/05/25 03:25:49;;;;;;;52.08;29.40;;;;;;;14.58;80.72;100656.68;1737096;82;27739;-70
2023/05/25 03:28:16;;;;;;;52.78;31.15;;;;;;;14.62;80.88;100664.45;1737073;82;25587;-72
2023/05/25 03:30:42;;;;;;;53.35;30.50;;;;;;;14.64;80.67;100671.75;1736931;82;25518;-72
2023/05/25 03:33:08;;;;;;;53.25;31.35;;;;;;;14.63;80.43;100674.80;1737015;82;25430;-72
2023/05/25 03:35:34;;;;;;;58.00;31.68;;;;;;;14.61;80.62;100681.92;1738354;81;25382;-71
2023/05/25 03:38:00;;;;;;;52.60;32.42;;;;;;;14.58;80.21;100686.62;1737066;81;28092;-72
2023/05/25 03:40:27;;;;;;;52.38;30.77;;;;;;;14.51;80.38;100696.66;1736999;81;25588;-71
2023/05/25 03:42:53;;;;;;;53.33;30.50;;;;;;;14.49;80.53;100693.47;1737191;82;25584;-71
2023/05/25 03:45:19;;;;;;;51.80;32.58;;;;;;;14.48;80.73;100698.66;1737261;82;25524;-71
2023/05/25 03:47:47;;;;;;;56.08;32.88;;;;;;;14.47;80.90;100697.08;1737047;82;25462;-71
2023/05/25 03:50:13;;;;;;;53.25;32.78;;;;;;;14.49;80.99;100698.09;1737886;82;27473;-71
2023/05/25 03:52:39;;;;;;;55.65;31.57;;;;;;;14.51;81.06;100695.86;1736751;82;25604;-71
2023/05/25 03:55:08;;;;;;;54.00;31.35;;;;;;;14.52;80.91;100694.18;1737561;81;25543;-71
2023/05/25 03:57:34;;;;;;;64.50;34.35;;;;;;;14.51;80.93;100687.70;1737502;81;25477;-71
2023/05/25 04:00:00;;;;;;;53.05;32.80;;;;;;;14.49;80.92;100688.56;1737251;82;25528;-71
2023/05/25 04:02:26;;;;;;;58.98;35.33;;;;;;;14.47;80.90;100680.75;1737210;82;27467;-71
2023/05/25 04:04:52;;;;;;;57.48;34.65;;;;;;;14.48;81.02;100683.69;1737137;81;25423;-71
2023/05/25 04:07:20;;;;;;;62.33;36.60;;;;;;;14.50;81.17;100690.96;1737261;81;25605;-71
2023/05/25 04:09:46;;;;;;;59.30;35.50;;;;;;;14.52;81.22;100686.02;1737180;82;25656;-71
2023/05/25 04:12:12;;;;;;;61.18;36.60;;;;;;;14.54;81.35;100688.38;1738279;81;25538;-71
2023/05/25 04:14:38;;;;;;;62.73;37.10;;;;;;;14.58;81.36;100692.06;1737195;82;27984;-71
2023/05/25 04:17:04;;;;;;;65.57;35.38;;;;;;;14.57;81.35;100696.72;1732989;82;25623;-71
2023/05/25 04:19:33;;;;;;;59.00;36.60;;;;;;;14.63;81.50;100701.45;1732502;82;25561;-71
2023/05/25 04:21:59;;;;;;;58.23;35.43;;;;;;;14.65;81.38;100699.19;1732464;82;25601;-71
2023/05/25 04:24:25;;;;;;;54.95;34.45;;;;;;;14.63;80.97;100689.77;1732620;82;25465;-70
2023/05/25 04:26:51;;;;;;;62.43;36.30;;;;;;;14.65;81.42;100692.95;1732449;82;27532;-70
2023/05/25 04:29:17;;;;;;;60.83;36.53;;;;;;;14.70;81.39;100691.41;1732361;82;25556;-70
2023/05/25 04:31:44;;;;;;;60.15;37.17;;;;;;;14.70;81.31;100692.77;1732442;82;25395;-70
2023/05/25 04:34:13;;;;;;;56.35;35.13;;;;;;;14.73;81.50;100701.66;1732438;82;25492;-70
2023/05/25 04:36:42;;;;;;;64.45;36.88;;;;;;;14.73;81.24;100700.30;1732505;82;25461;-70
2023/05/25 04:39:08;;;;;;;57.17;35.25;;;;;;;14.78;81.56;100693.30;1732605;82;28103;-70
2023/05/25 04:41:36;;;;;;;59.95;35.85;;;;;;;14.80;81.37;100692.41;1732380;82;25576;-71
2023/05/25 04:44:03;;;;;;;59.55;35.78;;;;;;;14.79;81.07;100693.52;1732504;82;25467;-71
2023/05/25 04:46:30;;;;;;;57.05;34.75;;;;;;;14.78;80.83;100700.66;1732465;82;25645;-71
2023/05/25 04:48:57;;;;;;;56.50;35.65;;;;;;;14.78;81.16;100698.75;1732569;82;25612;-71
2023/05/25 04:51:23;;;;;;;53.05;34.15;;;;;;;14.78;80.86;100704.20;1732618;82;27433;-71
2023/05/25 04:53:50;;;;;;;60.63;34.73;;;;;;;14.76;80.82;100700.98;1732428;82;25580;-71
2023/05/25 04:56:17;;;;;;;59.42;36.30;;;;;;;14.73;80.81;100704.38;1732472;82;25507;-72
2023/05/25 04:58:43;;;;;;;52.83;33.73;;;;;;;14.72;80.92;100710.94;1732525;82;25501;-72
2023/05/25 05:01:10;;;;;;;61.63;35.48;;;;;;;14.70;80.92;100709.11;1732602;82;25397;-71
2023/05/25 05:03:36;;;;;;;56.70;34.00;;;;;;;14.68;80.83;100718.17;1732466;82;27455;-71
2023/05/25 05:06:02;;;;;;;59.23;34.78;;;;;;;14.66;81.30;100721.22;1732388;82;25553;-71
2023/05/25 05:08:28;;;;;;;55.08;33.08;;;;;;;14.66;81.23;100719.86;1736248;82;25413;-71
2023/05/25 05:10:54;;;;;;;59.15;33.88;;;;;;;14.71;81.35;100725.66;1732410;82;25581;-67
2023/05/25 05:13:20;;;;;;;54.75;33.50;;;;;;;14.71;81.70;100723.77;1732333;82;25517;-68
2023/05/25 05:15:47;;;;;;;56.15;32.63;;;;;;;14.76;81.45;100720.03;1732444;82;27435;-68
2023/05/25 05:18:13;;;;;;;54.20;31.93;;;;;;;14.81;81.57;100720.42;1732276;82;25520;-68
2023/05/25 05:20:40;;;;;;;60.48;34.65;;;;;;;14.82;81.48;100722.83;1732424;82;25386;-68
2023/05/25 05:23:06;;;;;;;54.18;31.40;;;;;;;14.81;81.15;100723.94;1732387;82;25494;-69
2023/05/25 05:25:36;;;;;;;58.65;33.88;;;;;;;14.80;80.99;100728.37;1732525;82;25399;-68
2023/05/25 05:28:04;;;;;;;47.27;29.85;;;;;;;14.79;81.14;100726.77;1732584;82;27592;-69
2023/05/25 05:30:30;;;;;;;54.73;30.43;;;;;;;15.02;81.43;100745.02;1732608;82;25653;-68
2023/05/25 05:32:57;;;;;;;47.93;30.88;;;;;;;15.02;81.43;100745.02;1732392;82;25392;-69
2023/05/25 05:35:23;;;;;;;46.73;30.45;;;;;;;14.90;81.07;100726.08;1732333;82;27639;-66
2023/05/25 05:37:49;;;;;;;49.30;31.12;;;;;;;14.91;80.90;100726.33;1732383;82;25574;-69
2023/05/25 05:40:15;;;;;;;47.75;30.88;;;;;;;14.93;81.05;100722.70;1732316;82;27453;-69
2023/05/25 05:42:41;;;;;;;54.35;30.23;;;;;;;14.96;80.91;100729.98;1732143;82;27361;-68
2023/05/25 05:45:10;;;;;;;46.80;29.07;;;;;;;14.97;81.01;100733.74;1732369;82;25344;-69
2023/05/25 05:47:38;;;;;;;45.27;30.33;;;;;;;15.04;81.16;100741.41;1732648;82;25628;-69
2023/05/25 05:50:06;;;;;;;48.10;29.27;;;;;;;15.13;81.49;100742.94;1732382;82;25421;-69
2023/05/25 05:52:33;;;;;;;49.20;30.03;;;;;;;15.23;81.29;100749.94;1732663;82;27566;-69
2023/05/25 05:54:59;;;;;;;48.13;30.10;;;;;;;15.30;81.11;100744.77;1711583;82;25631;-70
2023/05/25 05:57:27;;;;;;;44.95;30.35;;;;;;;15.41;80.96;100748.47;1732579;82;25145;-70
2023/05/25 05:59:54;;;;;;;58.15;31.40;;;;;;;15.52;81.02;100752.98;1732837;82;25825;-69
2023/05/25 06:02:21;;;;;;;53.92;30.17;;;;;;;15.61;80.62;100753.72;1732649;82;25465;-71
2023/05/25 06:04:47;;;;;;;43.48;28.05;;;;;;;15.67;79.91;100761.38;1732706;82;27771;-71
2023/05/25 06:07:13;;;;;;;44.95;29.20;;;;;;;15.70;79.67;100761.28;1731149;82;25662;-69
2023/05/25 06:09:39;;;;;;;48.65;29.10;;;;;;;15.78;79.67;100771.38;1732392;82;25419;-71
2023/05/25 06:12:07;;;;;;;42.08;28.02;;;;;;;15.84;79.51;100764.56;1732528;82;26014;-70
2023/05/25 06:14:34;;;;;;;43.20;27.80;;;;;;;15.91;79.26;100765.97;1736445;82;25446;-71
2023/05/25 06:17:00;;;;;;;48.23;28.75;;;;;;;15.97;79.00;100768.17;1737592;82;27445;-70
2023/05/25 06:19:26;;;;;;;44.88;28.50;;;;;;;16.03;78.95;100773.64;1737424;82;25547;-71
2023/05/25 06:21:53;;;;;;;45.63;28.38;;;;;;;16.10;78.46;100775.04;1737168;82;25621;-68
2023/05/25 06:24:19;;;;;;;43.15;27.95;;;;;;;16.12;78.17;100780.38;1737160;82;25514;-71
2023/05/25 06:26:45;;;;;;;50.23;29.50;;;;;;;16.14;77.88;100782.23;1737186;82;25494;-70
2023/05/25 06:29:13;;;;;;;49.38;29.07;;;;;;;16.18;78.05;100785.09;1737166;81;27539;-70
2023/05/25 06:31:39;;;;;;;50.12;28.92;;;;;;;16.24;77.99;100789.19;1737064;81;25655;-71
2023/05/25 06:34:05;;;;;;;51.80;29.85;;;;;;;16.32;77.75;100791.62;1737117;82;25675;-70
2023/05/25 06:36:31;;;;;;;44.33;29.67;;;;;;;16.38;77.77;100791.65;1737120;82;25614;-70
2023/05/25 06:38:57;;;;;;;41.28;27.60;;;;;;;16.45;77.46;100791.89;1737175;82;25583;-69
2023/05/25 06:41:23;;;;;;;38.42;27.42;;;;;;;16.50;77.19;100791.68;1737168;82;28023;-70
2023/05/25 06:43:50;;;;;;;43.73;27.55;;;;;;;16.52;76.65;100794.87;1737149;82;25367;-70
2023/05/25 06:46:16;;;;;;;46.80;29.18;;;;;;;16.52;76.14;100788.04;1737236;81;25462;-70
2023/05/25 06:48:44;;;;;;;41.88;26.73;;;;;;;16.48;75.77;100787.13;1737055;82;27642;-70
2023/05/25 06:51:10;;;;;;;45.38;28.90;;;;;;;16.48;76.01;100788.50;1737158;82;25522;-70
2023/05/25 06:53:38;;;;;;;45.92;28.10;;;;;;;16.51;76.04;100792.47;1737055;82;29774;-70
2023/05/25 06:56:05;;;;;;;39.92;25.85;;;;;;;16.56;76.31;100789.53;1737056;82;25599;-70
2023/05/25 06:58:31;;;;;;;42.67;27.48;;;;;;;16.62;76.32;100785.45;1737109;82;25668;-70
2023/05/25 07:00:59;;;;;;;46.35;29.57;;;;;;;16.70;76.11;100793.31;1737218;81;25987;-70
2023/05/25 07:03:26;;;;;;;42.40;27.67;;;;;;;16.74;75.58;100791.52;1737292;82;25689;-68
2023/05/25 07:05:52;;;;;;;49.40;27.87;;;;;;;16.77;75.58;100794.37;1742349;81;27652;-70
2023/05/25 07:08:18;;;;;;;46.02;29.80;;;;;;;16.85;75.85;100793.27;1736972;82;25377;-70
2023/05/25 07:10:44;;;;;;;46.80;29.90;;;;;;;16.93;75.57;100792.38;1737084;81;25427;-70
2023/05/25 07:13:11;;;;;;;50.65;29.63;;;;;;;17.00;75.42;100793.97;1737227;81;25705;-69
2023/05/25 07:15:37;;;;;;;44.55;29.70;;;;;;;17.06;75.16;100791.80;1737284;81;25557;-69
2023/05/25 07:18:04;;;;;;;41.30;29.12;;;;;;;17.09;74.52;100791.12;1737204;81;27569;-68
2023/05/25 07:20:30;;;;;;;43.80;29.18;;;;;;;17.11;74.30;100792.39;1737161;82;25582;-69
2023/05/25 07:22:56;;;;;;;45.50;29.30;;;;;;;17.11;73.81;100787.47;1737173;82;25419;-70
2023/05/25 07:25:22;;;;;;;44.80;26.95;;;;;;;17.14;74.18;100788.95;1737044;82;26028;-68
2023/05/25 07:27:53;;;;;;;40.48;28.05;;;;;;;17.18;74.00;100789.87;1737179;82;25537;-70
2023/05/25 07:30:17;;;;;;;46.75;30.57;;;;;;;17.18;73.69;100786.36;1737353;81;28176;-68
2023/05/25 07:32:43;;;;;;;46.18;28.60;;;;;;;17.22;73.69;100788.63;1737081;82;25603;-69
2023/05/25 07:35:10;;;;;;;39.27;26.05;;;;;;;17.32;73.96;100784.06;1737232;82;25577;-70
2023/05/25 07:37:36;;;;;;;37.75;26.33;;;;;;;17.48;74.31;100784.16;1737217;82;25537;-69
2023/05/25 07:40:03;;;;;;;41.80;27.37;;;;;;;17.61;72.96;100779.47;1737297;82;25454;-70
2023/05/25 07:42:33;;;;;;;44.20;27.48;;;;;;;17.61;72.65;100784.16;1737208;82;28121;-70
2023/05/25 07:44:57;;;;;;;40.78;26.50;;;;;;;17.71;72.32;100787.78;1737074;82;25578;-70
2023/05/25 07:47:23;;;;;;;40.50;25.08;;;;;;;17.69;72.18;100788.67;1737258;82;25566;-69
2023/05/25 07:49:50;;;;;;;34.43;24.30;;;;;;;17.80;72.79;100788.44;1737203;82;25525;-69
2023/05/25 07:52:17;;;;;;;37.55;26.45;;;;;;;17.97;73.07;100792.08;1737299;82;25555;-69
2023/05/25 07:54:45;;;;;;;37.05;25.75;;;;;;;18.06;71.65;100785.87;1737241;82;27900;-69
2023/05/25 07:57:11;;;;;;;35.63;25.80;;;;;;;18.11;71.85;100787.78;1737142;82;25463;-70
2023/05/25 07:59:37;;;;;;;35.45;25.37;;;;;;;18.24;71.84;100787.17;1737312;82;25608;-70
2023/05/25 08:02:03;;;;;;;37.55;25.48;;;;;;;18.31;70.58;100778.95;1737280;82;25533;-70
2023/05/25 08:04:30;;;;;;;36.08;24.30;;;;;;;18.34;70.95;100775.48;1737428;82;25618;-71
2023/05/25 08:06:57;;;;;;;36.53;26.30;;;;;;;18.50;71.29;100774.95;1737280;82;27469;-71
2023/05/25 08:09:23;;;;;;;38.98;26.20;;;;;;;18.63;69.93;100779.22;1737217;81;25593;-71
2023/05/25 08:11:49;;;;;;;37.45;24.65;;;;;;;18.57;69.26;100780.61;1737297;81;25388;-70
2023/05/25 08:14:16;;;;;;;38.98;27.07;;;;;;;18.63;69.49;100781.17;1737129;82;25997;-70
2023/05/25 08:16:42;;;;;;;36.00;24.95;;;;;;;18.71;69.06;100789.80;1737289;82;25615;-70
2023/05/25 08:19:09;;;;;;;38.10;25.25;;;;;;;18.76;69.43;100784.61;1737269;82;27463;-70
2023/05/25 08:21:36;;;;;;;36.50;24.85;;;;;;;18.92;69.80;100796.42;1737183;82;25409;-71
2023/05/25 08:24:03;;;;;;;37.40;25.35;;;;;;;19.09;69.49;100791.16;1737187;82;25553;-70
2023/05/25 08:26:30;;;;;;;33.28;23.73;;;;;;;19.26;69.11;100790.00;1737197;82;25545;-70
2023/05/25 08:28:57;;;;;;;35.95;25.20;;;;;;;19.32;67.83;100785.81;1737268;82;25446;-71
2023/05/25 08:31:23;;;;;;;36.35;25.25;;;;;;;19.38;67.77;100785.77;1737214;82;27532;-68
2023/05/25 08:33:49;;;;;;;37.15;26.12;;;;;;;19.50;67.63;100786.23;1737100;82;25565;-68
2023/05/25 08:36:15;;;;;;;38.95;25.37;;;;;;;19.63;67.12;100784.73;1737155;82;25596;-66
2023/05/25 08:38:41;;;;;;;38.60;25.30;;;;;;;19.78;67.67;100777.87;1737164;82;25562;-65
2023/05/25 08:41:08;;;;;;;33.88;25.32;;;;;;;20.07;67.64;100783.13;1737242;81;25633;-65
2023/05/25 08:43:35;;;;;;;37.17;25.40;;;;;;;20.28;67.04;100789.05;1737135;81;27472;-65
2023/05/25 08:46:07;;;;;;;33.20;23.90;;;;;;;20.46;66.64;100782.51;1737121;81;25636;-66
2023/05/25 08:48:35;;;;;;;35.03;25.80;;;;;;;20.67;65.62;100784.08;1737192;82;25556;-65
2023/05/25 08:51:08;;;;;;;38.33;25.10;;;;;;;20.80;65.18;100786.87;1737794;82;25502;-67
2023/05/25 08:53:38;;;;;;;34.85;23.57;;;;;;;21.01;64.73;100787.83;1737341;81;25438;-65
2023/05/25 08:56:20;;;;;;;34.13;24.27;;;;;;;21.29;64.93;100785.30;1737385;82;27448;-64
2023/05/25 08:58:55;;;;;;;31.35;22.75;;;;;;;21.61;64.39;100788.55;1737412;81;25577;-64
2023/05/25 09:01:26;;;;;;;32.35;24.10;;;;;;;21.96;63.79;100784.69;1737197;82;25640;-65
2023/05/25 09:03:56;;;;;;;29.42;22.15;;;;;;;22.28;62.86;100784.27;1737188;81;25551;-63
2023/05/25 09:06:25;;;;;;;32.65;22.20;;;;;;;22.48;61.70;100784.88;1737580;81;25574;-63
2023/05/25 09:08:53;;;;;;;30.55;21.62;;;;;;;22.60;60.97;100778.30;1737185;82;27498;-64
2023/05/25 09:11:21;;;;;;;28.98;22.75;;;;;;;22.75;59.67;100784.74;1737146;82;25746;-64
2023/05/25 09:13:48;;;;;;;29.67;20.70;;;;;;;22.71;59.19;100782.52;1737382;82;25390;-68
2023/05/25 09:16:17;;;;;;;30.77;21.57;;;;;;;22.85;58.89;100782.67;1737090;81;25536;-67
2023/05/25 09:18:43;;;;;;;29.50;20.55;;;;;;;22.81;58.13;100785.18;1737390;82;25456;-67
2023/05/25 09:21:10;;;;;;;31.42;21.75;;;;;;;22.85;58.00;100783.23;1736258;82;27603;-68
2023/05/25 09:23:37;;;;;;;26.90;20.95;;;;;;;22.92;57.68;100789.61;1735813;81;25819;-68
2023/05/25 09:26:05;;;;;;;33.05;21.45;;;;;;;22.97;57.88;100794.56;1735865;82;25632;-67
2023/05/25 09:28:31;;;;;;;30.27;22.37;;;;;;;23.13;58.26;100790.98;1735982;82;27741;-66
2023/05/25 09:30:58;;;;;;;28.40;22.98;;;;;;;23.45;58.36;100786.28;1736162;82;25695;-66
2023/05/25 09:33:25;;;;;;;28.98;22.52;;;;;;;24.17;58.65;100792.16;1735961;81;29629;-66
2023/05/25 09:35:54;;;;;;;37.15;23.55;;;;;;;24.81;56.18;100790.13;1736336;82;25631;-66
2023/05/25 09:38:22;;;;;;;40.80;28.45;;;;;;;24.90;54.69;100784.98;1737369;82;25422;-66
2023/05/25 09:40:50;;;;;;;25.77;20.68;;;;;;;25.02;54.23;100787.95;1737074;81;25558;-66
2023/05/25 09:43:17;;;;;;;26.00;19.75;;;;;;;25.32;54.49;100786.77;1737444;82;25399;-66
2023/05/25 09:45:44;;;;;;;24.45;20.12;;;;;;;25.94;53.68;100783.22;1741420;81;27472;-67
2023/05/25 09:48:10;;;;;;;25.40;19.52;;;;;;;26.34;52.71;100781.84;1737225;81;25561;-66
2023/05/25 09:50:37;;;;;;;26.55;19.67;;;;;;;26.78;51.88;100786.50;1737367;82;25644;-70
2023/05/25 09:53:04;;;;;;;24.23;18.75;;;;;;;27.38;51.04;100787.20;1737152;82;25470;-68
2023/05/25 09:55:32;;;;;;;20.15;18.05;;;;;;;27.92;50.21;100781.84;1737248;82;25606;-68
2023/05/25 09:57:58;;;;;;;21.70;17.40;;;;;;;28.22;48.38;100782.23;1737268;82;28117;-68
2023/05/25 10:00:25;;;;;;;26.02;19.23;;;;;;;28.27;46.97;100788.72;1737235;82;25573;-68
2023/05/25 10:02:53;;;;;;;23.15;18.45;;;;;;;28.10;46.60;100794.70;1737331;82;25641;-68
2023/05/25 10:05:21;;;;;;;23.23;18.47;;;;;;;28.28;46.46;100795.25;1737435;82;25482;-68
2023/05/25 10:07:52;;;;;;;23.10;18.52;;;;;;;28.43;46.30;100797.20;1737179;81;25616;-67
2023/05/25 10:10:19;;;;;;;30.95;20.90;;;;;;;28.85;45.66;100790.81;1737196;82;28528;-67
2023/05/25 10:12:50;;;;;;;21.33;18.52;;;;;;;28.98;43.94;100791.02;1737057;82;25785;-67
2023/05/25 10:15:19;;;;;;;24.67;19.05;;;;;;;29.12;44.40;100784.41;1739843;81;25470;-66
2023/05/25 10:17:54;;;;;;;23.80;18.35;;;;;;;29.55;42.95;100788.41;1742896;82;25533;-66
2023/05/25 10:20:22;;;;;;;23.22;17.87;;;;;;;29.36;42.26;100778.22;1743007;82;25556;-66
2023/05/25 10:23:10;;;;;;;21.33;17.05;;;;;;;29.37;42.43;100783.98;1738960;82;27442;-66
2023/05/25 10:25:46;;;;;;;22.13;16.17;;;;;;;29.05;41.64;100783.92;1734278;82;25450;-67
2023/05/25 10:28:35;;;;;;;21.33;16.80;;;;;;;28.82;41.64;100789.48;1746530;81;25584;-67
2023/05/25 10:31:03;;;;;;;23.07;18.12;;;;;;;28.60;42.04;100795.39;1741414;82;25552;-67
2023/05/25 10:33:32;;;;;;;25.12;17.90;;;;;;;28.07;41.72;100787.97;1737017;81;25581;-68
2023/05/25 10:35:59;;;;;;;24.40;19.42;;;;;;;27.99;42.02;100783.70;1737264;81;27468;-68
2023/05/25 10:38:27;;;;;;;26.87;21.27;;;;;;;28.12;42.60;100787.51;1737178;81;25666;-67
2023/05/25 10:40:55;;;;;;;23.40;16.07;;;;;;;28.19;42.42;100784.45;1737257;82;25406;-67
2023/05/25 10:43:23;;;;;;;23.95;18.67;;;;;;;28.57;43.37;100782.34;1737138;81;25641;-67
2023/05/25 10:45:49;;;;;;;24.05;18.62;;;;;;;28.94;41.50;100779.13;1737266;82;25572;-68
2023/05/25 10:48:15;;;;;;;28.42;21.25;;;;;;;28.99;41.67;100781.44;1737190;81;27505;-63
2023/05/25 10:50:45;;;;;;;24.32;18.60;;;;;;;29.03;40.99;100773.82;1737050;82;25398;-63
2023/05/25 10:53:15;;;;;;;25.97;18.00;;;;;;;28.99;40.37;100773.69;1736184;82;25398;-62
2023/05/25 10:55:49;;;;;;;21.68;15.70;;;;;;;29.32;41.82;100769.73;1737374;82;25644;-62
2023/05/25 10:58:19;;;;;;;22.25;14.85;;;;;;;29.86;41.02;100775.05;1731809;82;25579;-62
2023/05/25 11:01:11;;;;;;;20.62;15.55;;;;;;;30.42;40.74;100772.06;1737295;82;27466;-63
2023/05/25 11:03:57;;;;;;;39.98;35.80;;;;;;;31.01;40.36;100768.23;1737039;82;25628;-63
2023/05/25 11:06:45;;;;;;;22.60;16.82;;;;;;;31.68;39.37;100776.61;1737639;81;25539;-62
2023/05/25 11:09:30;;;;;;;19.40;14.45;;;;;;;31.85;38.16;100775.91;1734980;82;26052;-62
2023/05/25 11:14:29;;;;;;;;;;;;;;;31.87;36.82;100774.08;1654900;85;27473;-66
2023/05/25 11:17:14;;;;;;;22.80;17.35;;;;;;;31.06;35.89;100784.45;1655906;85;25767;-67